Time;durP1;ratioP1;P1;durP2;ratioP2;P2;SDS_P1;SDS_P2;PMS_P1;PMS_P2;Temp;Humidity;BMP_temperature;BMP_pressure;BME280_temperature;BME280_humidity;BME280_pressure;Samples;Min_cycle;Max_cycle;Signal;HPM_P1;HPM_P2
2023/07/26 00:00:02;;;;;;;13.07;8.60;;;;;;;13.95;100.00;149599.09;4974815;28;20246;-62
2023/07/26 00:02:40;;;;;;;12.77;8.43;;;;;;;13.92;100.00;149591.59;4975510;28;20309;-62
2023/07/26 00:05:07;;;;;;;12.73;8.17;;;;;;;13.88;100.00;149581.59;4976877;28;20280;-62
2023/07/26 00:07:33;;;;;;;11.80;8.50;;;;;;;13.83;100.00;149570.41;4974737;28;20309;-62
2023/07/26 00:10:00;;;;;;;14.60;7.60;;;;;;;13.80;100.00;149562.91;4976753;28;20234;-62
2023/07/26 00:12:27;;;;;;;12.30;7.60;;;;;;;13.76;100.00;149552.94;4975537;28;20224;-62
2023/07/26 00:14:55;;;;;;;13.33;8.23;;;;;;;13.78;100.00;149557.91;4975626;28;20315;-62
2023/07/26 00:17:21;;;;;;;12.07;7.60;;;;;;;13.79;100.00;149560.41;4976121;28;20297;-62
2023/07/26 00:19:52;;;;;;;11.80;7.70;;;;;;;13.74;100.00;149547.94;4978037;28;20232;-62
2023/07/26 00:22:19;;;;;;;11.53;8.17;;;;;;;13.71;100.00;149541.72;4975358;28;20252;-62
2023/07/26 00:24:49;;;;;;;10.03;8.07;;;;;;;13.70;100.00;149537.94;4978485;28;20809;-62
2023/07/26 00:27:17;;;;;;;14.30;8.23;;;;;;;13.71;100.00;149541.72;4973770;28;20230;-62
2023/07/26 00:29:44;;;;;;;13.70;8.30;;;;;;;13.77;100.00;149555.44;4992260;28;20245;-62
2023/07/26 00:32:13;;;;;;;13.47;8.10;;;;;;;13.78;100.00;149556.69;4975671;28;20229;-63
2023/07/26 00:34:39;;;;;;;11.70;8.37;;;;;;;13.77;100.00;149554.19;4973936;28;20293;-62
2023/07/26 00:37:06;;;;;;;12.07;7.77;;;;;;;13.72;100.00;149542.94;4991121;28;20248;-62
2023/07/26 00:39:32;;;;;;;14.37;8.67;;;;;;;13.67;100.00;149531.72;4974580;28;20629;-64
2023/07/26 00:41:59;;;;;;;9.27;8.10;;;;;;;13.69;100.00;149535.47;4976566;28;20826;-62
2023/07/26 00:44:26;;;;;;;13.57;8.33;;;;;;;13.64;100.00;149522.97;4971185;28;20227;-62
2023/07/26 00:46:55;;;;;;;13.00;7.93;;;;;;;13.64;100.00;149524.25;4992562;28;20717;-63
2023/07/26 00:49:24;;;;;;;13.13;7.97;;;;;;;13.64;100.00;149524.25;4971633;28;20298;-62
2023/07/26 00:51:50;;;;;;;10.70;7.60;;;;;;;13.70;100.00;149539.22;4978813;28;20394;-62
2023/07/26 00:54:21;;;;;;;11.37;7.97;;;;;;;13.72;100.00;149542.94;4975171;28;20253;-62
2023/07/26 00:56:47;;;;;;;15.47;7.63;;;;;;;13.68;100.00;149532.97;4977996;28;20233;-62
2023/07/26 00:59:14;;;;;;;9.73;7.27;;;;;;;13.66;100.00;149529.25;4987294;28;20233;-62
2023/07/26 01:01:41;;;;;;;8.17;7.30;;;;;;;13.67;100.00;149531.72;4991886;28;20236;-62
2023/07/26 01:04:07;;;;;;;15.90;8.00;;;;;;;13.67;100.00;149530.47;4978838;28;20238;-62
2023/07/26 01:06:45;;;;;;;10.33;8.27;;;;;;;13.63;100.00;149521.75;4973424;28;20238;-62
2023/07/26 01:09:17;;;;;;;10.83;7.83;;;;;;;13.60;100.00;149513.00;4974360;28;20296;-62
2023/07/26 01:11:53;;;;;;;14.23;7.63;;;;;;;13.60;100.00;149513.00;4991137;28;20238;-63
2023/07/26 01:14:33;;;;;;;10.00;7.50;;;;;;;13.57;100.00;149506.78;4988550;28;20228;-63
2023/07/26 01:17:00;;;;;;;9.57;7.33;;;;;;;13.55;100.00;149503.00;4978205;28;20301;-63
2023/07/26 01:19:27;;;;;;;13.37;7.63;;;;;;;13.60;100.00;149514.25;4975604;28;20776;-63
2023/07/26 01:21:55;;;;;;;13.17;7.70;;;;;;;13.58;100.00;149510.50;4978016;28;20670;-62
2023/07/26 01:24:22;;;;;;;11.30;7.27;;;;;;;13.51;100.00;149493.03;4976480;28;20233;-63
2023/07/26 01:26:49;;;;;;;10.33;7.00;;;;;;;13.52;100.00;149494.28;4993488;28;20218;-63
2023/07/26 01:29:15;;;;;;;9.27;7.00;;;;;;;13.49;100.00;149486.81;4976720;28;21719;-63
2023/07/26 01:31:42;;;;;;;14.97;7.27;;;;;;;13.50;100.00;149490.53;4977561;28;20225;-63
2023/07/26 01:34:11;;;;;;;11.70;8.10;;;;;;;13.48;100.00;149485.53;4994629;28;20241;-63
2023/07/26 01:36:39;;;;;;;10.63;7.40;;;;;;;13.47;100.00;149483.03;4992980;28;20226;-63
2023/07/26 01:39:09;;;;;;;10.43;7.27;;;;;;;13.45;100.00;149478.03;4979794;28;20299;-63
2023/07/26 01:41:36;;;;;;;10.23;7.10;;;;;;;13.43;100.00;149474.31;4976417;28;20221;-63
2023/07/26 01:44:05;;;;;;;9.43;7.77;;;;;;;13.48;100.00;149485.53;4980013;28;20226;-62
2023/07/26 01:46:31;;;;;;;9.90;6.77;;;;;;;13.53;100.00;149496.78;4974683;28;20742;-62
2023/07/26 01:48:58;;;;;;;11.00;7.57;;;;;;;13.50;100.00;149490.53;4977982;28;20232;-63
2023/07/26 01:51:25;;;;;;;17.43;7.50;;;;;;;13.53;100.00;149496.78;4991501;28;20295;-62
2023/07/26 01:53:51;;;;;;;12.17;7.33;;;;;;;13.49;100.00;149486.81;4975855;28;20240;-62
2023/07/26 01:56:20;;;;;;;9.93;7.50;;;;;;;13.54;100.00;149499.28;4991685;28;20228;-62
2023/07/26 01:58:47;;;;;;;10.20;6.80;;;;;;;13.53;100.00;149498.00;4992302;28;20256;-62
2023/07/26 02:01:14;;;;;;;9.50;7.10;;;;;;;13.56;100.00;149504.28;4972214;28;20247;-62
2023/07/26 02:03:41;;;;;;;11.77;7.20;;;;;;;13.50;100.00;149490.53;4993370;28;20226;-62
2023/07/26 02:06:08;;;;;;;8.13;7.33;;;;;;;13.47;100.00;149483.03;4994444;28;20237;-62
2023/07/26 02:08:35;;;;;;;9.47;6.93;;;;;;;13.45;100.00;149476.81;4977175;28;20776;-62
2023/07/26 02:11:01;;;;;;;9.20;6.43;;;;;;;13.37;100.00;149458.03;4977355;28;20240;-62
2023/07/26 02:13:29;;;;;;;11.87;8.00;;;;;;;13.40;100.00;149466.78;4975999;28;20287;-62
2023/07/26 02:15:55;;;;;;;8.87;6.27;;;;;;;13.37;100.00;149459.31;4991957;28;20321;-62
2023/07/26 02:18:23;;;;;;;8.37;6.73;;;;;;;13.35;100.00;149454.31;4978189;28;20242;-62
2023/07/26 02:20:49;;;;;;;14.07;7.03;;;;;;;13.39;100.00;149463.03;4977505;28;20233;-62
2023/07/26 02:23:16;;;;;;;15.07;7.37;;;;;;;13.40;100.00;149465.53;4976843;28;20232;-62
2023/07/26 02:25:42;;;;;;;9.50;6.57;;;;;;;13.43;100.00;149474.31;4992393;28;21076;-62
2023/07/26 02:28:09;;;;;;;12.00;6.67;;;;;;;13.37;100.00;149458.03;4994472;28;20248;-62
2023/07/26 02:30:38;;;;;;;9.00;6.80;;;;;;;13.34;100.00;149450.53;4975831;28;20836;-62
2023/07/26 02:33:05;;;;;;;14.00;7.23;;;;;;;13.29;100.00;149439.34;4972193;28;20224;-62
2023/07/26 02:35:35;;;;;;;9.37;6.87;;;;;;;13.24;100.00;149426.88;4955329;28;21020;-63
2023/07/26 02:38:09;;;;;;;11.37;7.07;;;;;;;13.22;100.00;149423.16;4965012;28;20239;-63
2023/07/26 02:40:40;;;;;;;8.70;6.77;;;;;;;13.21;100.00;149419.38;4975318;28;21018;-64
2023/07/26 02:43:07;;;;;;;9.48;7.43;;;;;;;13.27;100.00;149434.34;4943931;28;20866;-64
2023/07/26 02:45:38;;;;;;;9.30;6.10;;;;;;;13.22;100.00;149423.16;4950669;28;20243;-64
2023/07/26 02:48:11;;;;;;;12.60;7.03;;;;;;;13.16;100.00;149406.91;4973482;28;20226;-64
2023/07/26 02:50:54;;;;;;;8.80;6.40;;;;;;;13.12;100.00;149399.41;4881173;28;20230;-63
2023/07/26 02:53:25;;;;;;;9.13;6.47;;;;;;;13.09;100.00;149390.72;4940406;28;20302;-63
2023/07/26 02:55:55;;;;;;;11.93;7.20;;;;;;;13.09;100.00;149391.94;4956833;28;20245;-64
2023/07/26 02:58:32;;;;;;;9.10;5.77;;;;;;;13.13;100.00;149400.69;4921335;28;20340;-64
2023/07/26 03:01:13;;;;;;;8.63;5.90;;;;;;;13.06;100.00;149384.44;4943841;28;20761;-64
2023/07/26 03:03:44;;;;;;;12.83;6.67;;;;;;;13.08;100.00;149388.22;4952341;28;20588;-64
2023/07/26 03:06:12;;;;;;;7.07;5.77;;;;;;;13.05;100.00;149381.94;4993618;28;20228;-64
2023/07/26 03:08:39;;;;;;;9.67;5.50;;;;;;;13.05;100.00;149381.94;4976510;28;20240;-63
2023/07/26 03:11:06;;;;;;;8.20;6.00;;;;;;;13.04;100.00;149379.44;4975807;28;20238;-62
2023/07/26 03:13:33;;;;;;;9.67;6.10;;;;;;;12.99;100.00;149366.97;4988026;28;20237;-62
2023/07/26 03:15:59;;;;;;;22.87;7.00;;;;;;;12.98;100.00;149365.75;4991373;28;20709;-62
2023/07/26 03:18:26;;;;;;;8.27;6.53;;;;;;;12.98;100.00;149365.75;4974375;28;20255;-61
2023/07/26 03:20:54;;;;;;;8.77;6.17;;;;;;;12.96;100.00;149359.50;4976075;28;20287;-62
2023/07/26 03:23:20;;;;;;;9.63;5.87;;;;;;;12.90;100.00;149344.53;4976168;28;20868;-62
2023/07/26 03:25:47;;;;;;;10.60;6.20;;;;;;;12.85;100.00;149334.53;4978962;28;20750;-62
2023/07/26 03:28:14;;;;;;;7.80;6.03;;;;;;;12.87;100.00;149337.03;4975580;28;20237;-62
2023/07/26 03:30:41;;;;;;;8.13;6.00;;;;;;;12.87;100.00;149338.31;5183906;23;21523;-62
2023/07/26 03:33:08;;;;;;;8.90;5.73;;;;;;;12.86;100.00;149335.81;5006422;28;20231;-62
2023/07/26 03:35:35;;;;;;;11.57;6.50;;;;;;;12.89;100.00;149342.03;5009996;28;20247;-62
2023/07/26 03:38:03;;;;;;;9.83;5.80;;;;;;;12.89;100.00;149342.03;5012040;28;20257;-62
2023/07/26 03:40:29;;;;;;;8.30;5.77;;;;;;;12.84;100.00;149330.81;5015145;28;20778;-62
2023/07/26 03:42:56;;;;;;;5.97;5.37;;;;;;;12.85;100.00;149334.53;4996788;28;20294;-61
2023/07/26 03:45:22;;;;;;;7.97;5.53;;;;;;;12.86;100.00;149335.81;4994766;28;20228;-61
2023/07/26 03:47:49;;;;;;;11.70;5.87;;;;;;;12.89;100.00;149342.03;4998066;28;20305;-61
2023/07/26 03:50:20;;;;;;;7.97;5.57;;;;;;;12.87;100.00;149338.31;4994934;28;20279;-61
2023/07/26 03:52:47;;;;;;;9.50;5.97;;;;;;;12.90;100.00;149345.78;4995691;28;20250;-61
2023/07/26 03:55:15;;;;;;;10.20;5.50;;;;;;;12.90;100.00;149344.53;4996705;28;20244;-61
2023/07/26 03:57:43;;;;;;;8.10;5.27;;;;;;;12.92;100.00;149349.50;5000926;28;20244;-61
2023/07/26 04:00:13;;;;;;;9.17;6.00;;;;;;;12.95;100.00;149358.28;4995219;28;20235;-61
2023/07/26 04:02:39;;;;;;;8.27;5.30;;;;;;;12.92;100.00;149350.78;4996152;28;20233;-61
2023/07/26 04:05:06;;;;;;;7.00;5.20;;;;;;;12.91;100.00;149348.28;4999182;28;20225;-61
2023/07/26 04:07:35;;;;;;;7.23;5.50;;;;;;;12.90;100.00;149345.78;4997547;28;20575;-62
2023/07/26 04:10:02;;;;;;;10.30;5.27;;;;;;;12.94;100.00;149355.78;4996908;28;21149;-62
2023/07/26 04:12:30;;;;;;;9.37;5.13;;;;;;;12.97;100.00;149362.00;4996321;28;20722;-61
2023/07/26 04:14:56;;;;;;;9.00;5.53;;;;;;;13.03;100.00;149376.97;5001963;28;20236;-61
2023/07/26 04:17:23;;;;;;;6.87;5.50;;;;;;;13.10;100.00;149394.44;4999270;28;20232;-62
2023/07/26 04:19:53;;;;;;;10.33;6.33;;;;;;;13.15;100.00;149405.69;5000301;28;20731;-61
2023/07/26 04:22:19;;;;;;;9.27;5.40;;;;;;;13.14;100.00;149403.19;4999048;28;20480;-62
2023/07/26 04:24:52;;;;;;;7.60;5.20;;;;;;;13.16;100.00;149406.91;5002712;28;20228;-62
2023/07/26 04:27:19;;;;;;;5.20;4.70;;;;;;;13.16;100.00;149408.16;5001272;28;20224;-62
2023/07/26 04:30:12;;;;;;;6.83;5.50;;;;;;;13.24;100.00;149426.88;5002837;28;20274;-62
2023/07/26 04:32:38;;;;;;;10.07;5.37;;;;;;;13.25;100.00;149429.38;4998042;28;20350;-62
2023/07/26 04:35:06;;;;;;;6.50;4.87;;;;;;;13.26;100.00;149431.84;5005159;28;20723;-62
2023/07/26 04:37:32;;;;;;;7.60;5.13;;;;;;;13.26;100.00;149433.09;4999336;28;20252;-62
2023/07/26 04:39:59;;;;;;;6.53;4.70;;;;;;;13.24;100.00;149426.88;5006175;28;20236;-62
2023/07/26 04:42:25;;;;;;;6.43;5.30;;;;;;;13.19;100.00;149415.66;4999988;28;20303;-62
2023/07/26 04:44:51;;;;;;;8.53;4.80;;;;;;;13.15;100.00;149405.69;5000541;28;20246;-62
2023/07/26 04:47:22;;;;;;;6.83;4.70;;;;;;;13.14;100.00;149404.41;4999647;28;20225;-62
2023/07/26 04:49:52;;;;;;;8.17;4.70;;;;;;;13.09;100.00;149390.72;5004771;28;20996;-62
2023/07/26 04:52:19;;;;;;;8.30;4.47;;;;;;;13.08;100.00;149388.22;5001550;28;20306;-62
2023/07/26 04:55:11;;;;;;;7.63;4.77;;;;;;;13.02;100.00;149374.47;4999525;28;20237;-62
2023/07/26 04:57:39;;;;;;;8.83;5.00;;;;;;;13.03;100.00;149376.97;5000872;28;20320;-61
2023/07/26 05:00:07;;;;;;;6.60;4.80;;;;;;;12.98;100.00;149364.50;5002588;28;20693;-61
2023/07/26 05:02:36;;;;;;;8.17;5.07;;;;;;;13.00;100.00;149369.47;5001324;28;20270;-61
2023/07/26 05:05:03;;;;;;;7.30;5.70;;;;;;;13.03;100.00;149376.97;5001952;28;20251;-61
2023/07/26 05:07:29;;;;;;;6.50;4.93;;;;;;;13.06;100.00;149384.44;5000085;28;20216;-61
2023/07/26 05:09:56;;;;;;;9.00;5.80;;;;;;;13.12;100.00;149399.41;5002431;28;20229;-61
2023/07/26 05:12:23;;;;;;;5.50;5.00;;;;;;;13.16;100.00;149408.16;4998572;28;20363;-61
2023/07/26 05:14:53;;;;;;;8.10;5.47;;;;;;;13.24;100.00;149428.13;4999357;28;20728;-61
2023/07/26 05:17:19;;;;;;;7.83;5.27;;;;;;;13.33;100.00;149449.31;4997683;28;20244;-62
2023/07/26 05:19:51;;;;;;;9.53;5.10;;;;;;;13.38;100.00;149461.81;5002294;28;20241;-62
2023/07/26 05:22:17;;;;;;;7.93;4.70;;;;;;;13.46;100.00;149479.31;4997952;28;20604;-62
2023/07/26 05:24:44;;;;;;;10.53;4.80;;;;;;;13.46;100.00;149480.53;5003318;28;20314;-62
2023/07/26 05:27:11;;;;;;;5.17;4.43;;;;;;;13.48;100.00;149484.31;5002646;28;21188;-62
2023/07/26 05:29:37;;;;;;;5.57;4.37;;;;;;;13.50;100.00;149490.53;5001032;28;20244;-61
2023/07/26 05:32:04;;;;;;;5.97;4.30;;;;;;;13.49;100.00;149488.03;4999786;28;20297;-61
2023/07/26 05:34:31;;;;;;;6.67;4.33;;;;;;;13.49;100.00;149486.81;4998279;28;20225;-62
2023/07/26 05:36:59;;;;;;;5.53;4.33;;;;;;;13.43;100.00;149474.31;5003114;28;20812;-62
2023/07/26 05:39:25;;;;;;;4.80;4.17;;;;;;;13.46;100.00;149479.31;4999575;28;20713;-61
2023/07/26 05:41:52;;;;;;;4.90;4.40;;;;;;;13.53;100.00;149496.78;5001559;28;20355;-61
2023/07/26 05:44:18;;;;;;;5.53;4.17;;;;;;;13.52;100.00;149495.53;4997550;28;20236;-61
2023/07/26 05:46:45;;;;;;;8.30;4.40;;;;;;;13.45;100.00;149478.03;5002371;28;20229;-61
2023/07/26 05:49:12;;;;;;;10.90;4.23;;;;;;;13.39;100.00;149463.03;5000329;28;20613;-61
2023/07/26 05:51:38;;;;;;;8.70;4.70;;;;;;;13.38;100.00;149460.53;5003139;28;20730;-61
2023/07/26 05:54:06;;;;;;;7.33;4.80;;;;;;;13.32;100.00;149445.56;5002659;28;20363;-61
2023/07/26 05:56:33;;;;;;;5.93;4.40;;;;;;;13.32;100.00;149446.81;4994291;28;20250;-62
2023/07/26 05:58:59;;;;;;;7.27;4.90;;;;;;;13.31;100.00;149444.34;5002780;28;20238;-62
2023/07/26 06:01:26;;;;;;;6.73;4.67;;;;;;;13.32;100.00;149446.81;4997515;28;20228;-62
2023/07/26 06:03:53;;;;;;;5.10;4.20;;;;;;;13.26;100.00;149431.84;4997751;28;20236;-62
2023/07/26 06:06:20;;;;;;;6.47;5.00;;;;;;;13.29;100.00;149439.34;4994423;28;20331;-63
2023/07/26 06:08:47;;;;;;;5.40;4.73;;;;;;;13.35;100.00;149453.03;4999514;28;20256;-62
2023/07/26 06:11:15;;;;;;;9.20;4.67;;;;;;;13.37;100.00;149459.31;5011825;28;20290;-62
2023/07/26 06:13:41;;;;;;;7.67;4.90;;;;;;;13.37;100.00;149459.31;4999534;28;20247;-62
2023/07/26 06:16:08;;;;;;;8.07;4.80;;;;;;;13.47;100.00;149481.81;5000347;28;20278;-62
2023/07/26 06:18:34;;;;;;;7.03;4.80;;;;;;;13.52;100.00;149494.28;4997489;28;20234;-63
2023/07/26 06:21:01;;;;;;;8.73;4.70;;;;;;;13.51;100.00;149493.03;5002667;28;20235;-62
2023/07/26 06:23:27;;;;;;;8.13;4.83;;;;;;;13.51;100.00;149491.78;4998306;28;20230;-62
2023/07/26 06:25:54;;;;;;;5.27;4.77;;;;;;;13.48;100.00;149485.53;5001560;28;20661;-62
2023/07/26 06:28:22;;;;;;;5.63;4.63;;;;;;;13.56;100.00;149504.28;4999292;28;20296;-62
2023/07/26 06:30:49;;;;;;;6.10;4.77;;;;;;;13.55;100.00;149503.00;5002246;28;20766;-62
2023/07/26 06:33:15;;;;;;;6.80;4.70;;;;;;;13.69;100.00;149536.72;4994814;28;20256;-62
2023/07/26 06:35:42;;;;;;;8.97;4.33;;;;;;;13.76;100.00;149551.69;4997430;28;20245;-62
2023/07/26 06:38:09;;;;;;;7.73;4.73;;;;;;;13.78;100.00;149557.91;4998692;28;20229;-62
2023/07/26 06:40:35;;;;;;;5.20;4.30;;;;;;;13.81;100.00;149564.13;4996441;28;20225;-62
2023/07/26 06:43:02;;;;;;;5.50;3.80;;;;;;;13.91;100.00;149587.88;5002363;28;20241;-62
2023/07/26 06:45:30;;;;;;;5.10;3.83;;;;;;;13.94;100.00;149596.59;4997409;28;20220;-62
2023/07/26 06:47:56;;;;;;;4.43;3.80;;;;;;;14.01;100.00;149614.06;5001713;28;20660;-62
2023/07/26 06:50:23;;;;;;;4.23;3.77;;;;;;;14.02;100.00;149616.56;4998015;28;20637;-62
2023/07/26 06:52:50;;;;;;;8.40;3.83;;;;;;;14.04;100.00;149620.34;4998520;28;20233;-62
2023/07/26 06:55:16;;;;;;;7.53;3.60;;;;;;;14.13;100.00;149642.81;4996431;28;20229;-62
2023/07/26 06:57:43;;;;;;;5.13;3.60;;;;;;;14.14;100.00;149645.31;5001396;28;20241;-62
2023/07/26 07:00:12;;;;;;;5.17;3.63;;;;;;;14.13;100.00;149641.53;5013205;28;20233;-62
2023/07/26 07:02:40;;;;;;;5.03;3.53;;;;;;;14.17;100.00;149652.78;4996190;28;20240;-62
2023/07/26 07:05:08;;;;;;;4.10;3.40;;;;;;;14.20;100.00;149659.00;4996148;28;20234;-62
2023/07/26 07:07:34;;;;;;;5.50;3.90;;;;;;;14.18;100.00;149654.03;4993441;28;20233;-62
2023/07/26 07:10:01;;;;;;;6.00;3.83;;;;;;;14.11;100.00;149637.81;4997668;28;20299;-62
2023/07/26 07:12:27;;;;;;;6.13;3.87;;;;;;;14.17;100.00;149652.78;4998072;28;20318;-62
2023/07/26 07:14:54;;;;;;;5.63;3.40;;;;;;;14.21;100.00;149661.50;4996625;28;20638;-62
2023/07/26 07:17:21;;;;;;;6.30;3.17;;;;;;;14.24;100.00;149669.00;4997369;28;20823;-62
2023/07/26 07:19:54;;;;;;;5.27;3.43;;;;;;;14.40;100.00;149706.47;4997346;28;20224;-62
2023/07/26 07:22:21;;;;;;;4.73;2.97;;;;;;;14.57;100.00;149747.63;4995836;28;20248;-62
2023/07/26 07:24:53;;;;;;;5.43;2.70;;;;;;;14.39;100.00;149703.97;4996635;28;20244;-62
2023/07/26 07:27:19;;;;;;;3.87;2.50;;;;;;;14.33;100.00;149690.19;4996770;28;20352;-62
2023/07/26 07:30:13;;;;;;;4.40;2.90;;;;;;;14.28;100.00;149679.00;4999165;28;20369;-62
2023/07/26 07:32:39;;;;;;;2.83;2.50;;;;;;;14.21;100.00;149661.50;4995685;28;20733;-62
2023/07/26 07:35:08;;;;;;;4.17;2.87;;;;;;;13.88;100.00;149582.88;4996703;28;20355;-63
2023/07/26 07:37:38;;;;;;;4.97;2.90;;;;;;;13.88;100.00;149581.59;4998135;28;20240;-62
2023/07/26 07:40:07;;;;;;;6.83;3.37;;;;;;;13.88;100.00;149581.59;5001822;28;20236;-62
2023/07/26 07:42:34;;;;;;;3.47;2.42;;;;;;;13.91;100.00;149589.09;4995817;28;20522;-62
2023/07/26 07:45:01;;;;;;;6.33;2.60;;;;;;;14.10;100.00;149634.03;5000628;28;20231;-62
2023/07/26 07:47:27;;;;;;;5.70;2.50;;;;;;;14.27;100.00;149675.25;4997791;28;20232;-62
2023/07/26 07:49:54;;;;;;;6.83;2.90;;;;;;;14.23;100.00;149665.28;4999043;28;20885;-62
2023/07/26 07:52:22;;;;;;;7.43;2.83;;;;;;;14.35;100.00;149695.19;4996140;28;20666;-62
2023/07/26 07:54:53;;;;;;;6.17;2.53;;;;;;;14.47;100.00;149725.16;5000542;28;20229;-62
2023/07/26 07:57:21;;;;;;;4.17;2.80;;;;;;;14.60;100.00;149755.13;4995954;28;20240;-62
2023/07/26 07:59:52;;;;;;;2.97;2.20;;;;;;;14.58;100.00;149751.41;4999130;28;20226;-62
2023/07/26 08:02:19;;;;;;;5.50;2.63;;;;;;;14.60;100.00;149755.13;5008512;28;20726;-62
2023/07/26 08:04:49;;;;;;;6.80;3.13;;;;;;;14.63;100.00;149762.63;4997208;28;20238;-62
2023/07/26 08:07:16;;;;;;;5.50;2.80;;;;;;;14.81;100.00;149805.13;4996633;28;20227;-62
2023/07/26 08:09:44;;;;;;;6.03;2.40;;;;;;;14.92;98.78;149832.63;5000174;28;20230;-62
2023/07/26 08:12:10;;;;;;;6.27;2.70;;;;;;;15.09;100.00;149872.59;4995153;28;20253;-62
2023/07/26 08:14:37;;;;;;;3.40;3.10;;;;;;;15.66;100.00;150011.25;4999169;28;20315;-62
2023/07/26 08:17:04;;;;;;;4.03;2.80;;;;;;;16.28;95.51;150161.22;4998525;28;20237;-62
2023/07/26 08:19:31;;;;;;;5.37;2.63;;;;;;;16.53;92.25;150221.22;4997639;28;20544;-62
2023/07/26 08:21:57;;;;;;;5.30;3.20;;;;;;;16.77;94.54;150279.97;5000019;28;20482;-62
2023/07/26 08:24:24;;;;;;;4.60;2.73;;;;;;;16.99;92.35;150332.53;4994501;28;20563;-62
2023/07/26 08:26:52;;;;;;;3.97;3.20;;;;;;;16.23;92.65;150148.72;4996982;28;20231;-63
2023/07/26 08:29:19;;;;;;;4.63;3.17;;;;;;;16.10;93.92;150117.50;4996880;28;20309;-63
2023/07/26 08:31:45;;;;;;;3.30;2.93;;;;;;;15.84;94.68;150053.72;5000416;28;20308;-63
2023/07/26 08:34:12;;;;;;;5.93;2.67;;;;;;;15.49;98.10;149969.97;4982783;28;20272;-63
2023/07/26 08:36:39;;;;;;;6.57;3.13;;;;;;;15.34;96.28;149933.78;4984901;28;20252;-63
2023/07/26 08:39:05;;;;;;;4.83;3.70;;;;;;;15.07;100.00;149867.59;5006974;28;20667;-63
2023/07/26 08:41:32;;;;;;;6.40;4.10;;;;;;;15.31;100.00;149926.28;4996403;28;24379;-62
2023/07/26 08:44:04;;;;;;;4.53;3.70;;;;;;;15.79;100.00;150042.44;4994978;28;20238;-62
2023/07/26 08:46:31;;;;;;;5.27;3.50;;;;;;;16.33;100.00;150172.50;4994335;28;20226;-62
2023/07/26 08:48:58;;;;;;;5.40;3.17;;;;;;;16.40;95.34;150188.72;4994749;28;20570;-63
2023/07/26 08:51:26;;;;;;;4.63;3.60;;;;;;;16.13;95.36;150123.72;4993088;28;20254;-63
2023/07/26 08:53:53;;;;;;;3.90;3.50;;;;;;;16.14;96.48;150126.22;4996006;28;20235;-63
2023/07/26 08:56:20;;;;;;;5.80;3.70;;;;;;;16.12;95.93;150122.50;4993347;28;20233;-63
2023/07/26 08:58:47;;;;;;;4.17;3.47;;;;;;;16.14;96.28;150126.22;4997727;28;21632;-63
2023/07/26 09:01:15;;;;;;;4.70;3.13;;;;;;;16.17;96.41;150135.00;4994005;28;20758;-64
2023/07/26 09:03:42;;;;;;;4.90;2.87;;;;;;;16.14;98.17;150126.22;4996779;28;20240;-62
2023/07/26 09:06:09;;;;;;;5.63;3.30;;;;;;;16.17;95.14;150135.00;4995337;28;20231;-62
2023/07/26 09:08:48;;;;;;;5.77;3.30;;;;;;;16.11;98.76;150120.00;4997651;28;20277;-62
2023/07/26 09:11:23;;;;;;;4.13;3.20;;;;;;;15.98;99.16;150088.72;4994022;28;20239;-62
2023/07/26 09:13:53;;;;;;;4.10;3.30;;;;;;;15.59;96.79;149994.97;5001592;28;20288;-63
2023/07/26 09:16:22;;;;;;;8.37;3.53;;;;;;;15.38;100.00;149943.75;4997961;28;20318;-62
2023/07/26 09:18:59;;;;;;;4.17;2.90;;;;;;;15.10;100.00;149875.06;5003319;28;20558;-62
2023/07/26 09:21:28;;;;;;;5.07;2.83;;;;;;;15.28;100.00;149918.78;4997177;28;20237;-62
2023/07/26 09:23:55;;;;;;;3.73;2.70;;;;;;;15.43;100.00;149954.97;5004137;28;20233;-62
2023/07/26 09:26:33;;;;;;;3.30;2.17;;;;;;;15.64;99.06;150006.25;4998993;28;20222;-62
2023/07/26 09:28:59;;;;;;;2.60;1.93;;;;;;;15.89;94.75;150066.28;5003758;28;20228;-62
2023/07/26 09:31:34;;;;;;;1.70;1.60;;;;;;;16.18;91.43;150137.50;4996430;28;20828;-62
2023/07/26 09:34:04;;;;;;;2.43;1.80;;;;;;;16.41;89.24;150192.50;5007264;28;20232;-62
2023/07/26 09:36:44;;;;;;;2.47;1.47;;;;;;;16.42;86.35;150193.72;5000185;28;20226;-62
2023/07/26 09:39:12;;;;;;;1.80;1.30;;;;;;;16.28;86.10;150160.00;5003568;28;20636;-62
2023/07/26 09:41:39;;;;;;;2.20;1.20;;;;;;;16.36;85.41;150181.22;5002208;28;20243;-62
2023/07/26 09:44:06;;;;;;;3.47;1.33;;;;;;;16.21;84.27;150145.00;5000034;28;20322;-62
2023/07/26 09:46:47;;;;;;;2.43;1.40;;;;;;;16.30;87.24;150165.00;4994887;28;20231;-62
2023/07/26 09:49:13;;;;;;;3.00;1.23;;;;;;;16.29;84.71;150163.72;4999104;28;20237;-62
2023/07/26 09:51:41;;;;;;;1.40;0.80;;;;;;;16.64;85.12;150248.72;5000839;28;20235;-62
2023/07/26 09:54:09;;;;;;;2.30;1.20;;;;;;;16.64;83.51;150248.72;4999442;28;20234;-62
2023/07/26 09:56:35;;;;;;;4.47;1.57;;;;;;;17.03;81.37;150341.25;4996979;28;20864;-62
2023/07/26 09:59:03;;;;;;;3.33;1.40;;;;;;;17.42;79.60;150436.31;5000953;28;20482;-62
2023/07/26 10:01:31;;;;;;;2.13;1.50;;;;;;;18.06;78.21;150590.22;4995614;28;20326;-62
2023/07/26 10:04:04;;;;;;;1.80;1.00;;;;;;;18.56;76.03;150711.59;5000780;28;20231;-62
2023/07/26 10:06:35;;;;;;;2.97;1.20;;;;;;;19.24;77.80;150876.88;4995674;28;20235;-62
2023/07/26 10:09:02;;;;;;;2.67;1.50;;;;;;;19.28;72.36;150886.88;4998833;28;20723;-62
2023/07/26 10:11:29;;;;;;;3.13;1.37;;;;;;;19.09;71.88;150840.59;4997140;28;20680;-62
2023/07/26 10:13:59;;;;;;;3.37;1.60;;;;;;;19.04;72.53;150828.06;4999960;28;20233;-62
2023/07/26 10:16:26;;;;;;;2.30;1.40;;;;;;;19.26;71.04;150880.66;4997735;28;20920;-62
2023/07/26 10:18:54;;;;;;;2.53;1.30;;;;;;;19.32;73.41;150896.91;5002361;28;20278;-63
2023/07/26 10:21:23;;;;;;;4.53;1.30;;;;;;;19.07;70.78;150835.56;4998962;28;20244;-63
2023/07/26 10:23:51;;;;;;;3.53;1.50;;;;;;;19.17;73.85;150859.34;4998697;28;20228;-62
2023/07/26 10:26:18;;;;;;;4.63;1.50;;;;;;;19.02;67.67;150823.06;4998432;28;20244;-62
2023/07/26 10:28:45;;;;;;;3.17;1.80;;;;;;;19.09;69.71;150840.59;5004986;28;20259;-62
2023/07/26 10:31:13;;;;;;;2.73;1.50;;;;;;;19.38;69.24;150909.44;5000070;28;20664;-63
2023/07/26 10:33:46;;;;;;;3.53;1.50;;;;;;;19.87;70.00;151028.41;4997929;28;20225;-62
2023/07/26 10:36:13;;;;;;;3.17;1.60;;;;;;;20.43;64.96;151164.97;4995939;28;20742;-63
2023/07/26 10:38:47;;;;;;;2.60;1.40;;;;;;;20.13;66.22;151091.06;4997097;28;20323;-62
2023/07/26 10:41:24;;;;;;;5.17;1.60;;;;;;;20.41;64.24;151159.97;4997412;28;20302;-62
2023/07/26 10:44:02;;;;;;;2.03;1.50;;;;;;;20.56;64.40;151195.06;5000455;28;20562;-62
2023/07/26 10:46:29;;;;;;;5.50;1.60;;;;;;;20.75;63.47;151242.69;4995048;28;20322;-62
2023/07/26 10:48:55;;;;;;;3.53;1.60;;;;;;;20.57;64.20;151197.56;4997790;28;20237;-62
2023/07/26 10:51:23;;;;;;;2.20;1.47;;;;;;;20.56;64.32;151196.31;5011194;28;20249;-63
2023/07/26 10:53:53;;;;;;;3.70;2.27;;;;;;;19.51;62.11;150940.75;4997610;28;20238;-63
2023/07/26 10:56:23;;;;;;;4.97;2.00;;;;;;;19.60;68.71;150963.31;4998408;28;20701;-62
2023/07/26 10:58:51;;;;;;;3.53;1.90;;;;;;;19.21;68.52;150869.34;5002639;28;20232;-62
2023/07/26 11:01:30;;;;;;;3.90;2.10;;;;;;;19.29;66.69;150889.38;4996510;28;20246;-62
2023/07/26 11:03:57;;;;;;;3.70;1.80;;;;;;;18.92;72.94;150797.97;4997411;28;20235;-62
2023/07/26 11:06:53;;;;;;;2.00;1.63;;;;;;;19.12;70.11;150846.81;4994928;28;20241;-62
2023/07/26 11:09:25;;;;;;;2.83;1.60;;;;;;;19.54;69.23;150948.28;4998207;28;20231;-62
2023/07/26 11:11:53;;;;;;;3.80;1.80;;;;;;;19.96;70.38;151051.00;4998873;28;20260;-62
2023/07/26 11:14:20;;;;;;;3.77;1.73;;;;;;;20.19;67.72;151107.34;4997085;28;20698;-62
2023/07/26 11:16:46;;;;;;;3.60;1.77;;;;;;;20.26;66.16;151123.66;4995750;28;20865;-62
2023/07/26 11:19:13;;;;;;;3.23;2.20;;;;;;;20.03;66.88;151067.28;4993707;28;20230;-62
2023/07/26 11:21:42;;;;;;;5.03;1.87;;;;;;;20.17;67.36;151102.31;5002434;28;20261;-63